sensor_id;sensor_type;location;lat;lon;timestamp;pressure;altitude;pressure_sealevel;temperature;humidity
71465;BME280;59274;49.874;9.154;2023-09-30T00:00:15;101084.25;;;16.08;100.00
71465;BME280;59274;49.874;9.154;2023-09-30T00:02:41;101089.72;;;16.08;100.00
71465;BME280;59274;49.874;9.154;2023-09-30T00:05:06;101090.53;;;16.04;100.00
71465;BME280;59274;49.874;9.154;2023-09-30T00:07:33;101083.47;;;16.03;100.00
71465;BME280;59274;49.874;9.154;2023-09-30T00:09:59;101091.66;;;16.00;100.00
71465;BME280;59274;49.874;9.154;2023-09-30T00:12:25;101088.16;;;15.96;100.00
71465;BME280;59274;49.874;9.154;2023-09-30T00:14:50;101083.84;;;15.98;100.00
71465;BME280;59274;49.874;9.154;2023-09-30T00:17:16;101091.28;;;15.94;100.00
71465;BME280;59274;49.874;9.154;2023-09-30T00:19:41;101092.44;;;15.93;100.00
71465;BME280;59274;49.874;9.154;2023-09-30T00:22:07;101099.88;;;15.89;100.00
71465;BME280;59274;49.874;9.154;2023-09-30T00:24:33;101093.63;;;15.96;100.00
71465;BME280;59274;49.874;9.154;2023-09-30T00:26:59;101105.75;;;15.91;100.00
71465;BME280;59274;49.874;9.154;2023-09-30T00:29:24;101113.97;;;15.91;100.00
71465;BME280;59274;49.874;9.154;2023-09-30T00:31:51;101114.34;;;15.93;100.00
71465;BME280;59274;49.874;9.154;2023-09-30T00:34:17;101124.16;;;15.94;100.00
71465;BME280;59274;49.874;9.154;2023-09-30T00:36:42;101126.47;;;15.92;100.00
71465;BME280;59274;49.874;9.154;2023-09-30T00:39:08;101125.69;;;15.92;100.00
71465;BME280;59274;49.874;9.154;2023-09-30T00:41:35;101129.66;;;15.98;100.00
71465;BME280;59274;49.874;9.154;2023-09-30T00:44:01;101134.34;;;15.97;100.00
71465;BME280;59274;49.874;9.154;2023-09-30T00:46:29;101137.91;;;16.05;100.00
71465;BME280;59274;49.874;9.154;2023-09-30T00:48:58;101136.69;;;15.99;100.00
71465;BME280;59274;49.874;9.154;2023-09-30T00:51:25;101142.56;;;15.97;100.00
71465;BME280;59274;49.874;9.154;2023-09-30T00:53:52;101141.78;;;15.97;100.00
71465;BME280;59274;49.874;9.154;2023-09-30T00:56:19;101141.75;;;15.93;100.00
71465;BME280;59274;49.874;9.154;2023-09-30T00:58:45;101135.91;;;15.91;100.00
71465;BME280;59274;49.874;9.154;2023-09-30T01:01:16;101150.78;;;15.97;100.00
71465;BME280;59274;49.874;9.154;2023-09-30T01:03:41;101150.00;;;15.97;100.00
71465;BME280;59274;49.874;9.154;2023-09-30T01:06:06;101151.56;;;15.98;100.00
71465;BME280;59274;49.874;9.154;2023-09-30T01:08:32;101150.78;;;15.97;100.00
71465;BME280;59274;49.874;9.154;2023-09-30T01:10:59;101146.84;;;15.95;100.00
71465;BME280;59274;49.874;9.154;2023-09-30T01:13:34;101144.53;;;15.97;100.00
71465;BME280;59274;49.874;9.154;2023-09-30T01:16:07;101148.44;;;15.96;100.00
71465;BME280;59274;49.874;9.154;2023-09-30T01:18:35;101148.41;;;15.92;100.00
71465;BME280;59274;49.874;9.154;2023-09-30T01:21:04;101144.88;;;15.92;100.00
71465;BME280;59274;49.874;9.154;2023-09-30T01:23:34;101151.94;;;15.89;100.00
71465;BME280;59274;49.874;9.154;2023-09-30T01:26:04;101155.03;;;15.88;100.00
71465;BME280;59274;49.874;9.154;2023-09-30T01:28:31;101146.78;;;15.77;100.00
71465;BME280;59274;49.874;9.154;2023-09-30T01:30:57;101147.53;;;15.71;100.00
71465;BME280;59274;49.874;9.154;2023-09-30T01:33:23;101160.47;;;15.70;100.00
71465;BME280;59274;49.874;9.154;2023-09-30T01:35:48;101156.16;;;15.69;100.00
71465;BME280;59274;49.874;9.154;2023-09-30T01:38:14;101156.16;;;15.69;100.00
71465;BME280;59274;49.874;9.154;2023-09-30T01:40:39;101160.00;;;15.64;100.00
71465;BME280;59274;49.874;9.154;2023-09-30T01:43:05;101171.78;;;15.69;100.00
71465;BME280;59274;49.874;9.154;2023-09-30T01:45:30;101166.28;;;15.65;100.00
71465;BME280;59274;49.874;9.154;2023-09-30T01:47:56;101170.59;;;15.62;100.00
71465;BME280;59274;49.874;9.154;2023-09-30T01:50:21;101175.63;;;15.57;100.00
71465;BME280;59274;49.874;9.154;2023-09-30T01:52:47;101176.44;;;15.61;100.00
71465;BME280;59274;49.874;9.154;2023-09-30T01:55:12;101170.56;;;15.59;100.00
71465;BME280;59274;49.874;9.154;2023-09-30T01:57:38;101176.81;;;15.59;100.00
71465;BME280;59274;49.874;9.154;2023-09-30T02:00:03;101174.06;;;15.56;100.00
71465;BME280;59274;49.874;9.154;2023-09-30T02:02:30;101164.97;;;15.41;100.00
71465;BME280;59274;49.874;9.154;2023-09-30T02:04:56;101170.81;;;15.40;100.00
71465;BME280;59274;49.874;9.154;2023-09-30T02:07:22;101157.16;;;15.47;100.00
71465;BME280;59274;49.874;9.154;2023-09-30T02:09:48;101166.50;;;15.39;100.00
71465;BME280;59274;49.874;9.154;2023-09-30T02:12:14;101158.66;;;15.34;100.00
71465;BME280;59274;49.874;9.154;2023-09-30T02:14:39;101170.03;;;15.43;100.00
71465;BME280;59274;49.874;9.154;2023-09-30T02:17:05;101166.09;;;15.33;100.00
71465;BME280;59274;49.874;9.154;2023-09-30T02:19:30;101170.78;;;15.33;100.00
71465;BME280;59274;49.874;9.154;2023-09-30T02:21:59;101154.31;;;15.25;100.00
71465;BME280;59274;49.874;9.154;2023-09-30T02:24:25;101158.56;;;15.23;100.00
71465;BME280;59274;49.874;9.154;2023-09-30T02:26:50;101158.94;;;15.18;100.00
71465;BME280;59274;49.874;9.154;2023-09-30T02:29:16;101162.84;;;15.17;100.00
71465;BME280;59274;49.874;9.154;2023-09-30T02:31:41;101175.78;;;15.23;100.00
71465;BME280;59274;49.874;9.154;2023-09-30T02:34:07;101173.78;;;15.20;100.00
71465;BME280;59274;49.874;9.154;2023-09-30T02:36:33;101171.84;;;15.17;100.00
71465;BME280;59274;49.874;9.154;2023-09-30T02:39:03;101176.16;;;15.18;100.00
71465;BME280;59274;49.874;9.154;2023-09-30T02:41:28;101186.31;;;15.18;100.00
71465;BME280;59274;49.874;9.154;2023-09-30T02:43:54;101187.47;;;15.17;100.00
71465;BME280;59274;49.874;9.154;2023-09-30T02:46:20;101187.47;;;15.20;100.00
71465;BME280;59274;49.874;9.154;2023-09-30T02:48:45;101191.75;;;15.14;100.00
71465;BME280;59274;49.874;9.154;2023-09-30T02:51:11;101195.31;;;15.18;100.00
71465;BME280;59274;49.874;9.154;2023-09-30T02:53:37;101196.88;;;15.19;100.00
71465;BME280;59274;49.874;9.154;2023-09-30T02:56:03;101184.69;;;15.13;100.00
71465;BME280;59274;49.874;9.154;2023-09-30T02:58:30;101195.25;;;15.15;100.00
71465;BME280;59274;49.874;9.154;2023-09-30T03:00:56;101194.88;;;15.16;100.00
71465;BME280;59274;49.874;9.154;2023-09-30T03:03:21;101192.16;;;15.16;100.00
71465;BME280;59274;49.874;9.154;2023-09-30T03:05:47;101185.50;;;15.17;100.00
71465;BME280;59274;49.874;9.154;2023-09-30T03:08:15;101189.34;;;15.06;100.00
71465;BME280;59274;49.874;9.154;2023-09-30T03:10:41;101196.34;;;15.03;100.00
71465;BME280;59274;49.874;9.154;2023-09-30T03:13:07;101208.50;;;15.09;100.00
71465;BME280;59274;49.874;9.154;2023-09-30T03:15:35;101206.50;;;15.03;100.00
71465;BME280;59274;49.874;9.154;2023-09-30T03:18:00;101217.09;;;15.08;100.00
71465;BME280;59274;49.874;9.154;2023-09-30T03:20:26;101220.97;;;15.03;100.00
71465;BME280;59274;49.874;9.154;2023-09-30T03:22:52;101226.56;;;15.17;100.00
71465;BME280;59274;49.874;9.154;2023-09-30T03:25:20;101228.09;;;15.11;100.00
71465;BME280;59274;49.874;9.154;2023-09-30T03:27:47;101225.78;;;15.17;100.00
71465;BME280;59274;49.874;9.154;2023-09-30T03:30:14;101227.00;;;15.23;100.00
71465;BME280;59274;49.874;9.154;2023-09-30T03:32:40;101221.88;;;15.18;100.00
71465;BME280;59274;49.874;9.154;2023-09-30T03:35:08;101219.47;;;15.09;100.00
71465;BME280;59274;49.874;9.154;2023-09-30T03:37:45;101194.84;;;15.09;100.00
71465;BME280;59274;49.874;9.154;2023-09-30T03:40:13;101189.34;;;15.06;100.00
71465;BME280;59274;49.874;9.154;2023-09-30T03:42:46;101186.94;;;14.97;100.00
71465;BME280;59274;49.874;9.154;2023-09-30T03:45:14;101194.75;;;14.99;100.00
71465;BME280;59274;49.874;9.154;2023-09-30T03:47:41;101195.47;;;14.92;100.00
71465;BME280;59274;49.874;9.154;2023-09-30T03:50:07;101191.97;;;14.95;100.00
71465;BME280;59274;49.874;9.154;2023-09-30T03:52:39;101205.28;;;14.97;100.00
71465;BME280;59274;49.874;9.154;2023-09-30T03:55:05;101216.19;;;14.93;100.00
71465;BME280;59274;49.874;9.154;2023-09-30T03:57:31;101220.00;;;14.85;100.00
71465;BME280;59274;49.874;9.154;2023-09-30T03:59:59;101222.81;;;14.88;100.00
71465;BME280;59274;49.874;9.154;2023-09-30T04:02:24;101222.31;;;14.79;100.00
71465;BME280;59274;49.874;9.154;2023-09-30T04:04:50;101221.94;;;14.81;100.00
71465;BME280;59274;49.874;9.154;2023-09-30T04:07:18;101244.56;;;14.78;100.00
71465;BME280;59274;49.874;9.154;2023-09-30T04:09:44;101246.91;;;14.76;100.00
71465;BME280;59274;49.874;9.154;2023-09-30T04:12:09;101244.53;;;14.74;100.00
71465;BME280;59274;49.874;9.154;2023-09-30T04:14:35;101242.19;;;14.73;100.00
71465;BME280;59274;49.874;9.154;2023-09-30T04:17:00;101244.91;;;14.73;100.00
71465;BME280;59274;49.874;9.154;2023-09-30T04:19:26;101243.16;;;14.95;100.00
71465;BME280;59274;49.874;9.154;2023-09-30T04:21:51;101232.16;;;14.84;100.00
71465;BME280;59274;49.874;9.154;2023-09-30T04:24:16;101238.00;;;14.86;100.00
71465;BME280;59274;49.874;9.154;2023-09-30T04:26:44;101240.75;;;14.86;100.00
71465;BME280;59274;49.874;9.154;2023-09-30T04:29:10;101243.22;;;14.98;100.00
71465;BME280;59274;49.874;9.154;2023-09-30T04:31:37;101238.53;;;14.99;100.00
71465;BME280;59274;49.874;9.154;2023-09-30T04:34:04;101234.91;;;14.87;100.00
71465;BME280;59274;49.874;9.154;2023-09-30T04:36:30;101234.53;;;14.89;100.00
71465;BME280;59274;49.874;9.154;2023-09-30T04:38:56;101243.16;;;14.95;100.00
71465;BME280;59274;49.874;9.154;2023-09-30T04:41:21;101247.50;;;14.99;100.00
71465;BME280;59274;49.874;9.154;2023-09-30T04:43:47;101255.03;;;15.09;100.00
71465;BME280;59274;49.874;9.154;2023-09-30T04:46:13;101252.22;;;15.02;100.00
71465;BME280;59274;49.874;9.154;2023-09-30T04:48:39;101260.78;;;14.97;100.00
71465;BME280;59274;49.874;9.154;2023-09-30T04:51:08;101258.00;;;14.90;100.00
71465;BME280;59274;49.874;9.154;2023-09-30T04:53:34;101263.91;;;14.96;100.00
71465;BME280;59274;49.874;9.154;2023-09-30T04:55:59;101264.31;;;14.98;100.00
71465;BME280;59274;49.874;9.154;2023-09-30T04:58:25;101266.25;;;14.97;100.00
71465;BME280;59274;49.874;9.154;2023-09-30T05:00:51;101269.44;;;15.03;100.00
71465;BME280;59274;49.874;9.154;2023-09-30T05:03:16;101271.72;;;14.97;100.00
71465;BME280;59274;49.874;9.154;2023-09-30T05:05:41;101268.13;;;14.89;100.00
71465;BME280;59274;49.874;9.154;2023-09-30T05:08:07;101259.09;;;14.85;100.00
71465;BME280;59274;49.874;9.154;2023-09-30T05:10:33;101264.25;;;14.91;100.00
71465;BME280;59274;49.874;9.154;2023-09-30T05:12:59;101272.47;;;14.94;100.00
71465;BME280;59274;49.874;9.154;2023-09-30T05:15:24;101272.13;;;14.99;100.00
71465;BME280;59274;49.874;9.154;2023-09-30T05:17:50;101270.19;;;15.00;100.00
71465;BME280;59274;49.874;9.154;2023-09-30T05:20:16;101268.59;;;14.95;100.00
71465;BME280;59274;49.874;9.154;2023-09-30T05:22:42;101270.09;;;14.89;100.00
71465;BME280;59274;49.874;9.154;2023-09-30T05:25:12;101262.94;;;14.77;100.00
71465;BME280;59274;49.874;9.154;2023-09-30T05:27:37;101274.66;;;14.78;100.00
71465;BME280;59274;49.874;9.154;2023-09-30T05:30:04;101278.22;;;14.82;100.00
71465;BME280;59274;49.874;9.154;2023-09-30T05:32:31;101286.38;;;14.78;100.00
71465;BME280;59274;49.874;9.154;2023-09-30T05:34:57;101292.97;;;14.74;100.00
71465;BME280;59274;49.874;9.154;2023-09-30T05:37:24;101280.47;;;14.73;100.00
71465;BME280;59274;49.874;9.154;2023-09-30T05:39:50;101276.47;;;14.63;100.00
71465;BME280;59274;49.874;9.154;2023-09-30T05:42:16;101284.97;;;14.55;100.00
71465;BME280;59274;49.874;9.154;2023-09-30T05:44:43;101281.00;;;14.52;100.00
71465;BME280;59274;49.874;9.154;2023-09-30T05:47:09;101280.66;;;14.54;100.00
71465;BME280;59274;49.874;9.154;2023-09-30T05:49:35;101275.53;;;14.52;100.00
71465;BME280;59274;49.874;9.154;2023-09-30T05:52:02;101282.66;;;14.60;100.00
71465;BME280;59274;49.874;9.154;2023-09-30T05:54:28;101291.50;;;14.46;100.00
71465;BME280;59274;49.874;9.154;2023-09-30T05:56:54;101300.94;;;14.53;100.00
71465;BME280;59274;49.874;9.154;2023-09-30T05:59:19;101306.31;;;14.45;100.00
71465;BME280;59274;49.874;9.154;2023-09-30T06:01:45;101310.22;;;14.44;100.00
71465;BME280;59274;49.874;9.154;2023-09-30T06:04:11;101307.19;;;14.53;100.00
71465;BME280;59274;49.874;9.154;2023-09-30T06:06:37;101302.06;;;14.48;100.00
71465;BME280;59274;49.874;9.154;2023-09-30T06:09:04;101303.91;;;14.40;100.00
71465;BME280;59274;49.874;9.154;2023-09-30T06:11:33;101310.56;;;14.43;100.00
71465;BME280;59274;49.874;9.154;2023-09-30T06:13:59;101302.84;;;14.48;100.00
71465;BME280;59274;49.874;9.154;2023-09-30T06:16:25;101301.59;;;14.42;100.00
71465;BME280;59274;49.874;9.154;2023-09-30T06:18:52;101296.91;;;14.43;100.00
71465;BME280;59274;49.874;9.154;2023-09-30T06:21:17;101298.13;;;14.45;100.00
71465;BME280;59274;49.874;9.154;2023-09-30T06:23:49;101305.06;;;14.39;100.00
71465;BME280;59274;49.874;9.154;2023-09-30T06:26:17;101307.34;;;14.37;100.00
71465;BME280;59274;49.874;9.154;2023-09-30T06:28:43;101313.09;;;14.29;100.00
71465;BME280;59274;49.874;9.154;2023-09-30T06:31:10;101314.31;;;14.31;100.00
71465;BME280;59274;49.874;9.154;2023-09-30T06:33:37;101312.31;;;14.28;100.00
71465;BME280;59274;49.874;9.154;2023-09-30T06:36:13;101309.28;;;14.33;100.00
71465;BME280;59274;49.874;9.154;2023-09-30T06:38:43;101310.91;;;14.38;100.00
71465;BME280;59274;49.874;9.154;2023-09-30T06:41:09;101317.25;;;14.45;100.00
71465;BME280;59274;49.874;9.154;2023-09-30T06:43:35;101304.81;;;14.48;100.00
71465;BME280;59274;49.874;9.154;2023-09-30T06:46:07;101317.88;;;14.65;100.00
71465;BME280;59274;49.874;9.154;2023-09-30T06:48:34;101325.72;;;14.67;100.00
71465;BME280;59274;49.874;9.154;2023-09-30T06:51:00;101323.44;;;14.72;100.00
71465;BME280;59274;49.874;9.154;2023-09-30T06:53:25;101327.22;;;14.64;100.00
71465;BME280;59274;49.874;9.154;2023-09-30T06:55:51;101340.09;;;14.60;100.00
71465;BME280;59274;49.874;9.154;2023-09-30T06:58:16;101347.31;;;14.75;100.00
71465;BME280;59274;49.874;9.154;2023-09-30T07:00:49;101345.75;;;14.78;100.00
71465;BME280;59274;49.874;9.154;2023-09-30T07:03:16;101345.66;;;14.71;100.00
71465;BME280;59274;49.874;9.154;2023-09-30T07:05:41;101343.63;;;14.61;100.00
71465;BME280;59274;49.874;9.154;2023-09-30T07:08:08;101343.63;;;14.61;100.00
71465;BME280;59274;49.874;9.154;2023-09-30T07:10:33;101346.34;;;14.61;100.00
71465;BME280;59274;49.874;9.154;2023-09-30T07:13:02;101355.28;;;14.58;100.00
71465;BME280;59274;49.874;9.154;2023-09-30T07:15:27;101359.16;;;14.57;100.00
71465;BME280;59274;49.874;9.154;2023-09-30T07:17:53;101356.91;;;14.62;100.00
71465;BME280;59274;49.874;9.154;2023-09-30T07:20:18;101359.34;;;14.71;100.00
71465;BME280;59274;49.874;9.154;2023-09-30T07:22:45;101373.59;;;14.83;100.00
71465;BME280;59274;49.874;9.154;2023-09-30T07:25:10;101375.31;;;14.99;100.00
71465;BME280;59274;49.874;9.154;2023-09-30T07:27:35;101385.66;;;15.16;100.00
71465;BME280;59274;49.874;9.154;2023-09-30T07:30:01;101370.53;;;15.25;100.00
71465;BME280;59274;49.874;9.154;2023-09-30T07:32:28;101379.97;;;15.32;100.00
71465;BME280;59274;49.874;9.154;2023-09-30T07:34:56;101374.50;;;15.35;100.00
71465;BME280;59274;49.874;9.154;2023-09-30T07:37:21;101371.78;;;15.35;100.00
71465;BME280;59274;49.874;9.154;2023-09-30T07:39:47;101378.88;;;15.40;100.00
71465;BME280;59274;49.874;9.154;2023-09-30T07:42:12;101373.09;;;15.48;100.00
71465;BME280;59274;49.874;9.154;2023-09-30T07:44:38;101366.44;;;15.49;100.00
71465;BME280;59274;49.874;9.154;2023-09-30T07:47:04;101372.78;;;15.57;100.00
71465;BME280;59274;49.874;9.154;2023-09-30T07:49:32;101369.78;;;15.69;100.00
71465;BME280;59274;49.874;9.154;2023-09-30T07:51:58;101390.97;;;15.76;100.00
71465;BME280;59274;49.874;9.154;2023-09-30T07:54:23;101378.44;;;15.78;100.00
71465;BME280;59274;49.874;9.154;2023-09-30T07:56:49;101376.53;;;15.86;100.00
71465;BME280;59274;49.874;9.154;2023-09-30T07:59:14;101378.16;;;15.90;100.00
71465;BME280;59274;49.874;9.154;2023-09-30T08:01:41;101375.53;;;16.04;100.00
71465;BME280;59274;49.874;9.154;2023-09-30T08:04:06;101360.25;;;16.07;100.00
71465;BME280;59274;49.874;9.154;2023-09-30T08:06:32;101366.25;;;16.23;100.00
71465;BME280;59274;49.874;9.154;2023-09-30T08:08:58;101371.75;;;16.30;100.00
71465;BME280;59274;49.874;9.154;2023-09-30T08:11:23;101372.59;;;16.38;100.00
71465;BME280;59274;49.874;9.154;2023-09-30T08:13:53;101375.03;;;16.54;100.00
71465;BME280;59274;49.874;9.154;2023-09-30T08:16:18;101367.97;;;16.53;100.00
71465;BME280;59274;49.874;9.154;2023-09-30T08:18:44;101367.97;;;16.56;100.00
71465;BME280;59274;49.874;9.154;2023-09-30T08:21:10;101360.16;;;16.58;100.00
71465;BME280;59274;49.874;9.154;2023-09-30T08:23:36;101371.97;;;16.62;100.00
71465;BME280;59274;49.874;9.154;2023-09-30T08:26:02;101361.41;;;16.71;100.00
71465;BME280;59274;49.874;9.154;2023-09-30T08:28:28;101366.59;;;16.91;100.00
71465;BME280;59274;49.874;9.154;2023-09-30T08:30:54;101353.28;;;16.96;100.00
71465;BME280;59274;49.874;9.154;2023-09-30T08:33:24;101358.75;;;16.96;100.00
71465;BME280;59274;49.874;9.154;2023-09-30T08:35:49;101367.38;;;16.98;100.00
71465;BME280;59274;49.874;9.154;2023-09-30T08:38:15;101383.81;;;16.91;100.00
71465;BME280;59274;49.874;9.154;2023-09-30T08:40:40;101382.28;;;16.90;100.00
71465;BME280;59274;49.874;9.154;2023-09-30T08:43:11;101383.09;;;16.98;100.00
71465;BME280;59274;49.874;9.154;2023-09-30T08:45:39;101390.94;;;17.03;100.00
71465;BME280;59274;49.874;9.154;2023-09-30T08:48:06;101388.16;;;16.96;100.00
71465;BME280;59274;49.874;9.154;2023-09-30T08:50:35;101390.94;;;17.06;100.00
71465;BME280;59274;49.874;9.154;2023-09-30T08:53:02;101394.78;;;16.88;100.00
71465;BME280;59274;49.874;9.154;2023-09-30T08:55:29;101399.13;;;16.96;100.00
71465;BME280;59274;49.874;9.154;2023-09-30T08:57:55;101394.75;;;16.84;100.00
71465;BME280;59274;49.874;9.154;2023-09-30T09:00:22;101398.38;;;17.02;100.00
71465;BME280;59274;49.874;9.154;2023-09-30T09:02:49;101404.34;;;17.26;100.00
71465;BME280;59274;49.874;9.154;2023-09-30T09:05:15;101405.91;;;17.48;100.00
71465;BME280;59274;49.874;9.154;2023-09-30T09:07:42;101408.28;;;17.53;100.00
71465;BME280;59274;49.874;9.154;2023-09-30T09:10:10;101415.34;;;17.47;100.00
71465;BME280;59274;49.874;9.154;2023-09-30T09:12:40;101407.50;;;17.45;100.00
71465;BME280;59274;49.874;9.154;2023-09-30T09:15:08;101399.63;;;17.37;100.00
71465;BME280;59274;49.874;9.154;2023-09-30T09:17:44;101404.34;;;17.43;100.00
71465;BME280;59274;49.874;9.154;2023-09-30T09:20:11;101400.41;;;17.37;100.00
71465;BME280;59274;49.874;9.154;2023-09-30T09:22:43;101395.31;;;17.43;100.00
71465;BME280;59274;49.874;9.154;2023-09-30T09:25:10;101403.16;;;17.48;100.00
71465;BME280;59274;49.874;9.154;2023-09-30T09:27:37;101413.06;;;17.67;100.00
71465;BME280;59274;49.874;9.154;2023-09-30T09:33:00;101420.03;;;17.32;100.00
71465;BME280;59274;49.874;9.154;2023-09-30T09:35:27;101418.44;;;17.24;100.00
71465;BME280;59274;49.874;9.154;2023-09-30T09:38:02;101410.19;;;17.28;100.00
71465;BME280;59274;49.874;9.154;2023-09-30T09:40:33;101411.78;;;17.32;100.00
71465;BME280;59274;49.874;9.154;2023-09-30T09:42:59;101422.00;;;17.32;100.00
71465;BME280;59274;49.874;9.154;2023-09-30T09:45:28;101420.00;;;17.21;100.00
71465;BME280;59274;49.874;9.154;2023-09-30T09:47:54;101424.63;;;17.00;100.00
71465;BME280;59274;49.874;9.154;2023-09-30T09:50:21;101412.03;;;16.81;100.00
71465;BME280;59274;49.874;9.154;2023-09-30T09:52:51;101416.69;;;16.77;100.00
71465;BME280;59274;49.874;9.154;2023-09-30T09:55:21;101414.72;;;16.74;100.00
71465;BME280;59274;49.874;9.154;2023-09-30T09:57:48;101414.72;;;16.74;100.00
71465;BME280;59274;49.874;9.154;2023-09-30T10:00:21;101429.28;;;16.81;100.00
71465;BME280;59274;49.874;9.154;2023-09-30T10:02:49;101422.22;;;16.91;100.00
71465;BME280;59274;49.874;9.154;2023-09-30T10:05:16;101422.25;;;16.95;100.00
71465;BME280;59274;49.874;9.154;2023-09-30T10:07:46;101416.84;;;17.16;100.00
71465;BME280;59274;49.874;9.154;2023-09-30T10:10:14;101416.91;;;17.37;100.00
71465;BME280;59274;49.874;9.154;2023-09-30T10:12:42;101415.00;;;17.66;100.00
71465;BME280;59274;49.874;9.154;2023-09-30T10:18:01;101407.97;;;17.69;100.00
71465;BME280;59274;49.874;9.154;2023-09-30T10:20:35;101390.66;;;17.54;100.00
71465;BME280;59274;49.874;9.154;2023-09-30T10:25:42;101384.78;;;17.66;100.00
71465;BME280;59274;49.874;9.154;2023-09-30T10:36:31;101368.25;;;18.05;100.00
71465;BME280;59274;49.874;9.154;2023-09-30T10:39:00;101365.94;;;18.04;100.00
71465;BME280;59274;49.874;9.154;2023-09-30T10:46:56;101354.84;;;18.28;100.00
71465;BME280;59274;49.874;9.154;2023-09-30T10:51:54;101368.59;;;18.35;100.00
71465;BME280;59274;49.874;9.154;2023-09-30T10:54:43;101363.91;;;18.32;88.57
71465;BME280;59274;49.874;9.154;2023-09-30T10:57:10;101366.28;;;18.23;85.02
71465;BME280;59274;49.874;9.154;2023-09-30T10:59:35;101369.81;;;18.17;83.75
71465;BME280;59274;49.874;9.154;2023-09-30T11:02:01;101370.22;;;18.26;82.83
71465;BME280;59274;49.874;9.154;2023-09-30T11:04:27;101365.06;;;18.31;79.91
71465;BME280;59274;49.874;9.154;2023-09-30T11:06:56;101367.38;;;18.54;80.91
71465;BME280;59274;49.874;9.154;2023-09-30T11:09:22;101376.38;;;18.65;76.82
71465;BME280;59274;49.874;9.154;2023-09-30T11:11:49;101367.28;;;18.79;76.26
71465;BME280;59274;49.874;9.154;2023-09-30T11:14:25;101363.22;;;19.05;76.58
71465;BME280;59274;49.874;9.154;2023-09-30T11:16:53;101357.81;;;19.49;75.26
71465;BME280;59274;49.874;9.154;2023-09-30T11:19:20;101370.19;;;19.79;74.44
71465;BME280;59274;49.874;9.154;2023-09-30T11:21:47;101366.56;;;19.89;72.67
71465;BME280;59274;49.874;9.154;2023-09-30T11:24:13;101364.88;;;19.99;69.03
71465;BME280;59274;49.874;9.154;2023-09-30T11:26:39;101369.28;;;19.92;68.32
71465;BME280;59274;49.874;9.154;2023-09-30T11:29:11;101366.38;;;19.66;71.82
71465;BME280;59274;49.874;9.154;2023-09-30T11:31:43;101361.88;;;19.31;73.90
71465;BME280;59274;49.874;9.154;2023-09-30T11:34:09;101372.63;;;19.11;74.99
71465;BME280;59274;49.874;9.154;2023-09-30T11:36:38;101384.63;;;19.42;73.06
71465;BME280;59274;49.874;9.154;2023-09-30T11:39:05;101376.34;;;19.45;74.23
71465;BME280;59274;49.874;9.154;2023-09-30T11:41:38;101381.72;;;19.63;72.52
71465;BME280;59274;49.874;9.154;2023-09-30T11:44:09;101375.88;;;19.58;71.96
71465;BME280;59274;49.874;9.154;2023-09-30T11:46:56;101374.13;;;19.78;68.70
71465;BME280;59274;49.874;9.154;2023-09-30T11:51:52;101356.16;;;19.00;72.13
71465;BME280;59274;49.874;9.154;2023-09-30T11:54:18;101356.88;;;19.11;71.84
71465;BME280;59274;49.874;9.154;2023-09-30T11:56:43;101355.00;;;18.94;71.36
71465;BME280;59274;49.874;9.154;2023-09-30T11:59:10;101360.16;;;18.85;72.45
71465;BME280;59274;49.874;9.154;2023-09-30T12:01:37;101357.66;;;19.12;70.45
71465;BME280;59274;49.874;9.154;2023-09-30T12:04:03;101361.72;;;19.55;69.58
71465;BME280;59274;49.874;9.154;2023-09-30T12:06:29;101360.34;;;19.78;67.31
71465;BME280;59274;49.874;9.154;2023-09-30T12:08:55;101360.38;;;20.15;66.16
71465;BME280;59274;49.874;9.154;2023-09-30T12:11:20;101371.09;;;20.06;63.38
71465;BME280;59274;49.874;9.154;2023-09-30T12:13:49;101373.72;;;19.79;66.07
71465;BME280;59274;49.874;9.154;2023-09-30T12:16:16;101364.41;;;19.63;65.22
71465;BME280;59274;49.874;9.154;2023-09-30T12:18:41;101355.19;;;19.32;65.80
71465;BME280;59274;49.874;9.154;2023-09-30T12:21:11;101346.97;;;19.76;64.53
71465;BME280;59274;49.874;9.154;2023-09-30T12:23:39;101340.78;;;19.65;64.55
71465;BME280;59274;49.874;9.154;2023-09-30T12:26:07;101334.63;;;20.29;61.75
71465;BME280;59274;49.874;9.154;2023-09-30T12:28:33;101329.50;;;20.61;61.14
71465;BME280;59274;49.874;9.154;2023-09-30T12:30:59;101328.88;;;21.07;59.39
71465;BME280;59274;49.874;9.154;2023-09-30T12:33:29;101329.47;;;21.22;58.67
71465;BME280;59274;49.874;9.154;2023-09-30T12:35:56;101325.53;;;21.46;58.18
71465;BME280;59274;49.874;9.154;2023-09-30T12:38:22;101324.91;;;21.82;57.64
71465;BME280;59274;49.874;9.154;2023-09-30T12:40:48;101329.03;;;21.97;57.77
71465;BME280;59274;49.874;9.154;2023-09-30T12:43:13;101327.94;;;21.68;58.85
71465;BME280;59274;49.874;9.154;2023-09-30T12:45:39;101308.56;;;20.94;60.97
71465;BME280;59274;49.874;9.154;2023-09-30T12:48:04;101314.69;;;21.32;60.01
71465;BME280;59274;49.874;9.154;2023-09-30T12:50:30;101317.28;;;21.89;60.46
71465;BME280;59274;49.874;9.154;2023-09-30T12:52:56;101315.56;;;21.99;56.18
71465;BME280;59274;49.874;9.154;2023-09-30T12:55:21;101310.47;;;22.37;59.86
71465;BME280;59274;49.874;9.154;2023-09-30T12:57:46;101313.22;;;22.17;55.66
71465;BME280;59274;49.874;9.154;2023-09-30T13:00:13;101310.94;;;22.52;54.35
71465;BME280;59274;49.874;9.154;2023-09-30T13:02:41;101315.97;;;22.57;54.37
71465;BME280;59274;49.874;9.154;2023-09-30T13:05:06;101318.16;;;22.46;54.10
71465;BME280;59274;49.874;9.154;2023-09-30T13:07:32;101312.66;;;22.26;53.29